This is the latest recevied weather packets stored in our database for station/object JA1RBY-13. If no packets are shown the sender has not sent any weather packets the latest 10 day(s).
| Time | Temp. | Humidity | Pressure | Rain* | Wind** | Luminosity | Snow |
|---|---|---|---|---|---|---|---|
| 1788594597 | 24.44° C | 64% | 1012.8 hPa | 0 mm | - | - | - |
| 1788592795 | 25° C | 63% | 1012.5 hPa | 0 mm | - | - | - |
| 1788590997 | 25.56° C | 62% | 1012.4 hPa | 0 mm | - | - | - |
| 1788589196 | 25.56° C | 62% | 1012.5 hPa | 0 mm | - | - | - |
| 1788585597 | 26.67° C | 60% | 1012.8 hPa | 0 mm | - | - | - |
| 1788560396 | 20° C | 84% | 1013.1 hPa | 0.25 mm | - | - | - |
| 1788547797 | 19.44° C | 80% | 1012.2 hPa | 3.81 mm | - | - | - |
| 1788544197 | 20° C | 79% | 1012.5 hPa | 2.03 mm | - | - | - |
| 1788542397 | 20° C | 79% | 1012.7 hPa | 3.05 mm | - | - | - |
| 1788538796 | 20.56° C | 78% | 1013.2 hPa | 2.29 mm | - | - | - |
| 1788535197 | 20.56° C | 77% | 1012.3 hPa | 0 mm | - | - | - |
| 1788531597 | 21.11° C | 76% | 1012.4 hPa | 1.52 mm | - | - | - |
| 1788529797 | 21.11° C | 75% | 1012.9 hPa | 1.02 mm | - | - | - |
| 1788527996 | 21.11° C | 75% | 1013.8 hPa | 1.02 mm | - | - | - |
| 1788524397 | 21.67° C | 75% | 1013.9 hPa | 0.51 mm | - | - | - |
| 1788520797 | 22.22° C | 74% | 1013.4 hPa | 0.51 mm | - | - | - |
| 1788517196 | 22.78° C | 73% | 1012.7 hPa | 0.51 mm | - | - | - |
| 1788515397 | 23.33° C | 72% | 1012.2 hPa | 0 mm | - | - | - |
| 1788513596 | 23.33° C | 71% | 1011.7 hPa | 0 mm | - | - | - |
| 1788509997 | 23.89° C | 69% | 1011.1 hPa | 0 mm | - | - | - |
| 1788508196 | 24.44° C | 68% | 1011.2 hPa | 0 mm | - | - | - |
| 1788506396 | 24.44° C | 67% | 1010.9 hPa | 0 mm | - | - | - |
| 1788502797 | 25.56° C | 63% | 1011.5 hPa | 0 mm | - | - | - |
| 1788500997 | 25.56° C | 62% | 1010.4 hPa | 0 mm | - | - | - |
| 1788499197 | 25.56° C | 63% | 1011.2 hPa | 0 mm | - | - | - |
* Rain latest hour (hover to see other rain measurements)
** Current wind speed in m/s (hover to see current wind gust speed)